Blawenburg, New Jersey
Current Conditions -  °F | °C
As of 4:53 PM on Thursday 27 Nov 2014 (Local Time) from KTTN Reporting Station
Overcast Overcast  
Wind Chill: 30°   Ceiling: 5500
Heat Index: 36°   Visibility: 10mi
Dew Point: 27°   Wind: 7mph
Humidity: 70%   Direction: 290°WNW
Pressure: 30.03"   Gusts: NA
Location:  40.41°N, 74.7°W
Report Text: KTTN 272153Z 29006KT 10SM OVC055 02/M03 A3003 RMK AO2 SLP165 T00221028
Loading
Personal Weather Stations






























Interactive Weather Map New forecast layout! Learn more

10-Day Weather Forecast

Advertisements
Track Severe Weather on mobile